sensor_id;sensor_type;location;lat;lon;timestamp;pressure;altitude;pressure_sealevel;temperature;humidity
75409;BME280;63979;55.644;37.734;2024-01-15T00:01:23;98244.59;;;-7.63;72.99
75409;BME280;63979;55.644;37.734;2024-01-15T00:06:24;98233.97;;;-7.51;72.26
75409;BME280;63979;55.644;37.734;2024-01-15T00:11:24;98226.44;;;-7.62;72.52
75409;BME280;63979;55.644;37.734;2024-01-15T00:16:25;98186.25;;;-7.79;72.47
75409;BME280;63979;55.644;37.734;2024-01-15T00:21:26;98216.09;;;-7.63;73.04
75409;BME280;63979;55.644;37.734;2024-01-15T00:26:29;98227.88;;;-7.48;73.32
75409;BME280;63979;55.644;37.734;2024-01-15T00:31:30;98224.75;;;-7.64;73.73
75409;BME280;63979;55.644;37.734;2024-01-15T00:36:30;98212.94;;;-7.76;74.75
75409;BME280;63979;55.644;37.734;2024-01-15T00:41:31;98209.16;;;-7.61;75.26
75409;BME280;63979;55.644;37.734;2024-01-15T00:46:32;98182.38;;;-7.60;74.09
75409;BME280;63979;55.644;37.734;2024-01-15T00:51:33;98160.06;;;-7.67;75.05
75409;BME280;63979;55.644;37.734;2024-01-15T00:56:34;98195.56;;;-7.34;74.86
75409;BME280;63979;55.644;37.734;2024-01-15T01:01:35;98196.59;;;-7.41;74.44
75409;BME280;63979;55.644;37.734;2024-01-15T01:06:36;98187.38;;;-7.15;74.54
75409;BME280;63979;55.644;37.734;2024-01-15T01:11:36;98186.81;;;-7.30;74.46
75409;BME280;63979;55.644;37.734;2024-01-15T01:16:37;98176.25;;;-7.56;75.38
75409;BME280;63979;55.644;37.734;2024-01-15T01:21:39;98169.25;;;-7.52;75.37
75409;BME280;63979;55.644;37.734;2024-01-15T01:26:40;98158.47;;;-7.36;74.89
75409;BME280;63979;55.644;37.734;2024-01-15T01:31:44;98168.19;;;-7.08;74.26
75409;BME280;63979;55.644;37.734;2024-01-15T01:36:46;98144.94;;;-7.11;73.58
75409;BME280;63979;55.644;37.734;2024-01-15T01:41:46;98141.72;;;-6.87;74.10
75409;BME280;63979;55.644;37.734;2024-01-15T01:46:47;98151.13;;;-6.83;74.08
75409;BME280;63979;55.644;37.734;2024-01-15T01:51:49;98140.81;;;-6.86;73.96
75409;BME280;63979;55.644;37.734;2024-01-15T01:56:50;98137.53;;;-6.93;73.98
75409;BME280;63979;55.644;37.734;2024-01-15T02:01:55;98133.50;;;-6.72;74.65
75409;BME280;63979;55.644;37.734;2024-01-15T02:06:56;98125.81;;;-6.75;74.23
75409;BME280;63979;55.644;37.734;2024-01-15T02:11:57;98122.13;;;-6.66;74.67
75409;BME280;63979;55.644;37.734;2024-01-15T02:16:58;98129.63;;;-6.55;74.86
75409;BME280;63979;55.644;37.734;2024-01-15T02:21:59;98114.16;;;-6.60;74.98
75409;BME280;63979;55.644;37.734;2024-01-15T02:27:00;98115.69;;;-6.51;74.53
75409;BME280;63979;55.644;37.734;2024-01-15T02:32:04;98119.22;;;-6.24;74.19
75409;BME280;63979;55.644;37.734;2024-01-15T02:37:06;98128.06;;;-6.32;73.75
75409;BME280;63979;55.644;37.734;2024-01-15T02:42:07;98114.72;;;-6.18;73.69
75409;BME280;63979;55.644;37.734;2024-01-15T02:47:08;98077.38;;;-6.43;73.89
75409;BME280;63979;55.644;37.734;2024-01-15T02:52:08;98082.09;;;-6.28;73.78
75409;BME280;63979;55.644;37.734;2024-01-15T02:57:09;98109.00;;;-6.01;73.53
75409;BME280;63979;55.644;37.734;2024-01-15T03:02:10;98082.91;;;-6.26;73.24
75409;BME280;63979;55.644;37.734;2024-01-15T03:07:11;98109.38;;;-5.85;72.64
75409;BME280;63979;55.644;37.734;2024-01-15T03:12:12;98118.50;;;-6.00;73.84
75409;BME280;63979;55.644;37.734;2024-01-15T03:17:13;98104.72;;;-6.02;73.66
75409;BME280;63979;55.644;37.734;2024-01-15T03:22:14;98097.56;;;-5.68;73.47
75409;BME280;63979;55.644;37.734;2024-01-15T03:27:15;98082.50;;;-5.84;73.50
75409;BME280;63979;55.644;37.734;2024-01-15T03:32:16;98084.19;;;-5.83;74.91
75409;BME280;63979;55.644;37.734;2024-01-15T03:37:17;98077.88;;;-5.75;74.26
75409;BME280;63979;55.644;37.734;2024-01-15T03:42:17;98084.47;;;-5.65;73.83
75409;BME280;63979;55.644;37.734;2024-01-15T03:47:18;98079.59;;;-5.47;73.89
75409;BME280;63979;55.644;37.734;2024-01-15T03:52:19;98057.78;;;-5.70;74.09
75409;BME280;63979;55.644;37.734;2024-01-15T03:57:20;98080.75;;;-5.57;74.99
75409;BME280;63979;55.644;37.734;2024-01-15T04:02:21;98071.47;;;-5.38;74.70
75409;BME280;63979;55.644;37.734;2024-01-15T04:07:21;98063.25;;;-5.51;74.62
75409;BME280;63979;55.644;37.734;2024-01-15T04:12:22;98063.38;;;-5.55;75.10
75409;BME280;63979;55.644;37.734;2024-01-15T04:17:23;98053.81;;;-5.28;74.67
75409;BME280;63979;55.644;37.734;2024-01-15T04:22:25;98055.34;;;-5.23;75.52
75409;BME280;63979;55.644;37.734;2024-01-15T04:27:26;98064.38;;;-5.33;75.75
75409;BME280;63979;55.644;37.734;2024-01-15T04:32:26;98055.28;;;-5.20;76.03
75409;BME280;63979;55.644;37.734;2024-01-15T04:37:27;98054.44;;;-5.20;75.83
75409;BME280;63979;55.644;37.734;2024-01-15T04:42:28;98059.31;;;-5.11;76.58
75409;BME280;63979;55.644;37.734;2024-01-15T04:47:29;98052.53;;;-4.92;76.34
75409;BME280;63979;55.644;37.734;2024-01-15T04:52:30;98045.19;;;-5.04;76.45
75409;BME280;63979;55.644;37.734;2024-01-15T04:57:30;98023.63;;;-5.32;77.14
75409;BME280;63979;55.644;37.734;2024-01-15T05:02:31;98055.81;;;-5.10;77.04
75409;BME280;63979;55.644;37.734;2024-01-15T05:07:32;98042.25;;;-4.95;76.61
75409;BME280;63979;55.644;37.734;2024-01-15T05:12:33;98060.41;;;-4.93;76.83
75409;BME280;63979;55.644;37.734;2024-01-15T05:17:34;98041.66;;;-4.78;76.52
75409;BME280;63979;55.644;37.734;2024-01-15T05:22:34;98034.81;;;-4.81;76.64
75409;BME280;63979;55.644;37.734;2024-01-15T05:27:35;98042.03;;;-4.89;76.81
75409;BME280;63979;55.644;37.734;2024-01-15T05:32:36;98006.75;;;-4.96;76.96
75409;BME280;63979;55.644;37.734;2024-01-15T05:37:38;98048.56;;;-4.77;77.21
75409;BME280;63979;55.644;37.734;2024-01-15T05:42:39;98026.91;;;-4.78;76.92
75409;BME280;63979;55.644;37.734;2024-01-15T05:47:40;98048.88;;;-4.86;77.88
75409;BME280;63979;55.644;37.734;2024-01-15T05:52:42;98042.56;;;-4.56;77.58
75409;BME280;63979;55.644;37.734;2024-01-15T05:57:42;98040.94;;;-4.58;77.97
75409;BME280;63979;55.644;37.734;2024-01-15T06:02:43;98036.63;;;-4.59;77.92
75409;BME280;63979;55.644;37.734;2024-01-15T06:07:44;98042.69;;;-4.59;77.83
75409;BME280;63979;55.644;37.734;2024-01-15T06:12:45;98048.13;;;-4.65;78.05
75409;BME280;63979;55.644;37.734;2024-01-15T06:17:46;98052.06;;;-4.55;77.53
75409;BME280;63979;55.644;37.734;2024-01-15T06:22:47;98039.25;;;-4.36;77.21
75409;BME280;63979;55.644;37.734;2024-01-15T06:27:48;98031.88;;;-4.25;77.74
75409;BME280;63979;55.644;37.734;2024-01-15T06:32:48;98040.47;;;-4.23;77.54
75409;BME280;63979;55.644;37.734;2024-01-15T06:37:50;98036.09;;;-4.22;77.91
75409;BME280;63979;55.644;37.734;2024-01-15T06:42:51;98043.28;;;-4.05;76.75
75409;BME280;63979;55.644;37.734;2024-01-15T06:47:52;98046.25;;;-3.93;76.89
75409;BME280;63979;55.644;37.734;2024-01-15T06:52:53;98049.53;;;-3.66;77.12
75409;BME280;63979;55.644;37.734;2024-01-15T06:57:54;98041.13;;;-3.72;76.70
75409;BME280;63979;55.644;37.734;2024-01-15T07:02:55;98058.84;;;-3.82;76.76
75409;BME280;63979;55.644;37.734;2024-01-15T07:07:56;98053.25;;;-3.71;76.33
75409;BME280;63979;55.644;37.734;2024-01-15T07:12:56;98045.03;;;-3.62;76.16
75409;BME280;63979;55.644;37.734;2024-01-15T07:17:57;98048.06;;;-3.51;76.53
75409;BME280;63979;55.644;37.734;2024-01-15T07:22:58;98043.81;;;-3.54;76.38
75409;BME280;63979;55.644;37.734;2024-01-15T07:28:00;98045.59;;;-3.12;75.47
75409;BME280;63979;55.644;37.734;2024-01-15T07:33:01;98041.63;;;-3.22;75.86
75409;BME280;63979;55.644;37.734;2024-01-15T07:38:02;98047.97;;;-3.28;76.09
75409;BME280;63979;55.644;37.734;2024-01-15T07:43:03;98051.22;;;-3.43;76.86
75409;BME280;63979;55.644;37.734;2024-01-15T07:48:04;98030.16;;;-2.98;75.18
75409;BME280;63979;55.644;37.734;2024-01-15T07:53:05;98035.78;;;-3.07;75.57
75409;BME280;63979;55.644;37.734;2024-01-15T07:58:06;98052.75;;;-2.97;75.77
75409;BME280;63979;55.644;37.734;2024-01-15T08:03:07;98040.84;;;-2.84;75.52
75409;BME280;63979;55.644;37.734;2024-01-15T08:08:08;98048.56;;;-2.41;74.21
75409;BME280;63979;55.644;37.734;2024-01-15T08:13:09;98048.75;;;-2.46;74.05
75409;BME280;63979;55.644;37.734;2024-01-15T08:18:10;98033.94;;;-2.45;74.66
75409;BME280;63979;55.644;37.734;2024-01-15T08:23:10;98032.00;;;-2.61;75.08
75409;BME280;63979;55.644;37.734;2024-01-15T08:28:11;98006.75;;;-2.60;74.58
75409;BME280;63979;55.644;37.734;2024-01-15T08:33:12;98033.09;;;-2.27;74.96
75409;BME280;63979;55.644;37.734;2024-01-15T08:38:13;98037.53;;;-2.10;74.15
75409;BME280;63979;55.644;37.734;2024-01-15T08:43:14;98043.97;;;-2.17;75.22
75409;BME280;63979;55.644;37.734;2024-01-15T08:48:15;98040.25;;;-2.31;74.96
75409;BME280;63979;55.644;37.734;2024-01-15T08:53:16;98027.19;;;-2.31;74.21
75409;BME280;63979;55.644;37.734;2024-01-15T08:58:18;98037.81;;;-2.16;73.92
75409;BME280;63979;55.644;37.734;2024-01-15T09:03:18;98041.78;;;-2.27;74.54
75409;BME280;63979;55.644;37.734;2024-01-15T09:08:19;98042.25;;;-1.81;72.91
75409;BME280;63979;55.644;37.734;2024-01-15T09:13:20;98044.63;;;-1.94;73.08
75409;BME280;63979;55.644;37.734;2024-01-15T09:18:21;98035.78;;;-1.91;73.27
75409;BME280;63979;55.644;37.734;2024-01-15T09:23:22;98046.16;;;-1.90;73.13
75409;BME280;63979;55.644;37.734;2024-01-15T09:28:22;98002.16;;;-1.99;73.41
75409;BME280;63979;55.644;37.734;2024-01-15T09:33:23;98024.63;;;-1.41;72.28
75409;BME280;63979;55.644;37.734;2024-01-15T09:38:24;98028.81;;;-1.37;72.22
75409;BME280;63979;55.644;37.734;2024-01-15T09:43:25;98014.66;;;-0.99;70.33
75409;BME280;63979;55.644;37.734;2024-01-15T09:48:26;98037.06;;;-1.28;70.58
75409;BME280;63979;55.644;37.734;2024-01-15T09:53:27;98046.50;;;-1.25;70.45
75409;BME280;63979;55.644;37.734;2024-01-15T09:58:29;98048.47;;;-1.47;71.72
75409;BME280;63979;55.644;37.734;2024-01-15T10:03:30;98053.69;;;-1.65;72.07
75409;BME280;63979;55.644;37.734;2024-01-15T10:08:32;98040.13;;;-1.37;71.08
75409;BME280;63979;55.644;37.734;2024-01-15T10:13:33;98045.63;;;-1.60;71.53
75409;BME280;63979;55.644;37.734;2024-01-15T10:18:35;98044.69;;;-1.59;71.91
75409;BME280;63979;55.644;37.734;2024-01-15T10:23:37;98046.22;;;-1.72;71.64
75409;BME280;63979;55.644;37.734;2024-01-15T10:28:38;98031.53;;;-1.58;71.42
75409;BME280;63979;55.644;37.734;2024-01-15T10:33:39;98036.97;;;-1.26;70.78
75409;BME280;63979;55.644;37.734;2024-01-15T10:38:40;98041.56;;;-1.48;71.78
75409;BME280;63979;55.644;37.734;2024-01-15T10:43:41;98051.69;;;-1.60;71.89
75409;BME280;63979;55.644;37.734;2024-01-15T10:48:42;98033.50;;;-1.27;71.11
75409;BME280;63979;55.644;37.734;2024-01-15T10:53:43;98034.41;;;-1.45;71.74
75409;BME280;63979;55.644;37.734;2024-01-15T10:58:46;98041.31;;;-1.61;71.92
75409;BME280;63979;55.644;37.734;2024-01-15T11:03:47;98033.47;;;-1.44;72.08
75409;BME280;63979;55.644;37.734;2024-01-15T11:08:49;97995.53;;;-1.52;72.63
75409;BME280;63979;55.644;37.734;2024-01-15T11:13:50;98040.00;;;-1.52;72.17
75409;BME280;63979;55.644;37.734;2024-01-15T11:24:01;98026.91;;;-1.34;71.21
75409;BME280;63979;55.644;37.734;2024-01-15T11:40:00;98011.56;;;-1.24;71.04
75409;BME280;63979;55.644;37.734;2024-01-15T11:45:04;98011.63;;;-1.43;71.83
75409;BME280;63979;55.644;37.734;2024-01-15T11:50:06;98017.41;;;-1.02;70.82
75409;BME280;63979;55.644;37.734;2024-01-15T11:55:17;98020.34;;;-1.25;71.71
75409;BME280;63979;55.644;37.734;2024-01-15T12:00:20;97986.22;;;-1.41;71.54
75409;BME280;63979;55.644;37.734;2024-01-15T12:05:23;98021.44;;;-1.29;72.40
75409;BME280;63979;55.644;37.734;2024-01-15T12:10:24;98014.56;;;-1.32;72.81
75409;BME280;63979;55.644;37.734;2024-01-15T12:15:28;98013.41;;;-1.43;72.32
75409;BME280;63979;55.644;37.734;2024-01-15T12:20:30;98003.25;;;-1.49;73.25
75409;BME280;63979;55.644;37.734;2024-01-15T12:25:32;98011.44;;;-1.38;73.58
75409;BME280;63979;55.644;37.734;2024-01-15T12:30:34;98028.00;;;-1.57;73.99
75409;BME280;63979;55.644;37.734;2024-01-15T12:35:36;98007.81;;;-1.36;73.28
75409;BME280;63979;55.644;37.734;2024-01-15T12:40:37;98009.19;;;-1.29;73.25
75409;BME280;63979;55.644;37.734;2024-01-15T12:45:38;98014.94;;;-1.39;73.78
75409;BME280;63979;55.644;37.734;2024-01-15T12:50:39;98004.47;;;-1.39;74.09
75409;BME280;63979;55.644;37.734;2024-01-15T12:55:40;98016.69;;;-1.40;74.66
75409;BME280;63979;55.644;37.734;2024-01-15T13:00:41;98003.78;;;-1.26;74.24
75409;BME280;63979;55.644;37.734;2024-01-15T13:05:43;98008.81;;;-1.38;74.89
75409;BME280;63979;55.644;37.734;2024-01-15T13:10:43;98016.50;;;-1.18;74.25
75409;BME280;63979;55.644;37.734;2024-01-15T13:15:44;98025.78;;;-1.47;75.38
75409;BME280;63979;55.644;37.734;2024-01-15T13:20:45;98020.13;;;-1.20;74.96
75409;BME280;63979;55.644;37.734;2024-01-15T13:25:47;98008.16;;;-1.43;75.06
75409;BME280;63979;55.644;37.734;2024-01-15T13:30:48;98012.78;;;-1.48;75.19
75409;BME280;63979;55.644;37.734;2024-01-15T13:35:55;98020.59;;;-1.30;75.09
75409;BME280;63979;55.644;37.734;2024-01-15T13:41:07;98016.28;;;-1.31;74.98
75409;BME280;63979;55.644;37.734;2024-01-15T13:46:17;98038.97;;;-1.31;75.31
75409;BME280;63979;55.644;37.734;2024-01-15T13:51:26;98028.97;;;-1.23;75.15
75409;BME280;63979;55.644;37.734;2024-01-15T13:56:27;98031.44;;;-1.37;75.14
75409;BME280;63979;55.644;37.734;2024-01-15T14:01:32;98026.31;;;-1.40;76.55
75409;BME280;63979;55.644;37.734;2024-01-15T14:06:33;98044.09;;;-1.47;76.90
75409;BME280;63979;55.644;37.734;2024-01-15T14:11:34;98031.28;;;-1.34;76.75
75409;BME280;63979;55.644;37.734;2024-01-15T14:16:35;98030.50;;;-1.36;76.64
75409;BME280;63979;55.644;37.734;2024-01-15T14:21:36;98029.66;;;-1.19;76.18
75409;BME280;63979;55.644;37.734;2024-01-15T14:26:37;98021.56;;;-1.49;78.24
75409;BME280;63979;55.644;37.734;2024-01-15T14:31:38;98021.81;;;-1.37;78.26
75409;BME280;63979;55.644;37.734;2024-01-15T14:36:39;98015.09;;;-1.25;78.57
75409;BME280;63979;55.644;37.734;2024-01-15T14:41:40;98009.72;;;-1.22;78.54
75409;BME280;63979;55.644;37.734;2024-01-15T14:46:41;98014.94;;;-1.39;78.28
75409;BME280;63979;55.644;37.734;2024-01-15T14:51:41;98006.97;;;-1.36;79.70
75409;BME280;63979;55.644;37.734;2024-01-15T14:56:43;98008.34;;;-1.29;79.20
75409;BME280;63979;55.644;37.734;2024-01-15T15:01:43;98010.34;;;-1.34;79.50
75409;BME280;63979;55.644;37.734;2024-01-15T15:06:44;98006.94;;;-1.53;79.60
75409;BME280;63979;55.644;37.734;2024-01-15T15:11:45;98015.66;;;-1.36;79.88
75409;BME280;63979;55.644;37.734;2024-01-15T15:16:46;98016.94;;;-1.44;79.75
75409;BME280;63979;55.644;37.734;2024-01-15T15:21:48;98023.59;;;-1.37;78.81
75409;BME280;63979;55.644;37.734;2024-01-15T15:26:49;98015.84;;;-1.40;79.40
75409;BME280;63979;55.644;37.734;2024-01-15T15:31:50;98012.31;;;-1.39;78.37
75409;BME280;63979;55.644;37.734;2024-01-15T15:36:51;97998.34;;;-1.38;78.56
75409;BME280;63979;55.644;37.734;2024-01-15T15:41:52;97999.38;;;-1.42;78.44
75409;BME280;63979;55.644;37.734;2024-01-15T15:46:53;98009.78;;;-1.41;78.14
75409;BME280;63979;55.644;37.734;2024-01-15T15:51:53;98014.81;;;-1.36;78.58
75409;BME280;63979;55.644;37.734;2024-01-15T15:56:55;98025.41;;;-1.57;78.93
75409;BME280;63979;55.644;37.734;2024-01-15T16:01:55;98006.22;;;-1.40;78.35
75409;BME280;63979;55.644;37.734;2024-01-15T16:06:57;98007.81;;;-1.36;78.79
75409;BME280;63979;55.644;37.734;2024-01-15T16:12:00;97998.19;;;-1.35;78.21
75409;BME280;63979;55.644;37.734;2024-01-15T16:17:01;98001.84;;;-1.39;78.01
75409;BME280;63979;55.644;37.734;2024-01-15T16:22:02;97998.78;;;-1.30;78.12
75409;BME280;63979;55.644;37.734;2024-01-15T16:27:04;98000.03;;;-1.20;77.79
75409;BME280;63979;55.644;37.734;2024-01-15T16:32:05;97987.84;;;-1.21;78.09
75409;BME280;63979;55.644;37.734;2024-01-15T16:37:07;97993.72;;;-1.33;78.63
75409;BME280;63979;55.644;37.734;2024-01-15T16:42:09;97991.78;;;-1.12;78.71
75409;BME280;63979;55.644;37.734;2024-01-15T16:47:11;97977.75;;;-0.94;77.96
75409;BME280;63979;55.644;37.734;2024-01-15T16:52:12;97984.78;;;-1.29;79.24
75409;BME280;63979;55.644;37.734;2024-01-15T16:57:14;97982.09;;;-1.28;79.27
75409;BME280;63979;55.644;37.734;2024-01-15T17:02:33;97982.22;;;-1.48;79.61
75409;BME280;63979;55.644;37.734;2024-01-15T17:07:34;97984.47;;;-1.40;80.00
75409;BME280;63979;55.644;37.734;2024-01-15T17:12:35;97971.94;;;-1.34;79.54
75409;BME280;63979;55.644;37.734;2024-01-15T17:17:36;97968.75;;;-1.40;80.35
75409;BME280;63979;55.644;37.734;2024-01-15T17:22:36;97978.31;;;-1.39;79.80
75409;BME280;63979;55.644;37.734;2024-01-15T17:27:37;97924.75;;;-1.49;79.90
75409;BME280;63979;55.644;37.734;2024-01-15T17:32:39;97966.78;;;-1.35;79.65
75409;BME280;63979;55.644;37.734;2024-01-15T17:43:00;97963.22;;;-1.51;80.18
75409;BME280;63979;55.644;37.734;2024-01-15T17:48:01;97960.38;;;-1.47;80.02
75409;BME280;63979;55.644;37.734;2024-01-15T17:53:02;97958.44;;;-1.43;80.66
75409;BME280;63979;55.644;37.734;2024-01-15T17:58:02;97972.31;;;-1.41;80.56
75409;BME280;63979;55.644;37.734;2024-01-15T18:03:03;97958.16;;;-1.54;80.25
75409;BME280;63979;55.644;37.734;2024-01-15T18:08:04;97958.06;;;-1.53;80.20
75409;BME280;63979;55.644;37.734;2024-01-15T18:13:05;97954.06;;;-1.43;80.44
75409;BME280;63979;55.644;37.734;2024-01-15T18:18:07;97948.69;;;-1.40;80.90
75409;BME280;63979;55.644;37.734;2024-01-15T18:23:09;97942.16;;;-1.66;80.78
75409;BME280;63979;55.644;37.734;2024-01-15T18:28:11;97939.38;;;-1.45;81.34
75409;BME280;63979;55.644;37.734;2024-01-15T18:33:14;97945.53;;;-1.64;81.42
75409;BME280;63979;55.644;37.734;2024-01-15T18:38:15;97941.09;;;-1.62;81.83
75409;BME280;63979;55.644;37.734;2024-01-15T18:43:35;97930.22;;;-1.54;81.93
75409;BME280;63979;55.644;37.734;2024-01-15T18:48:35;97917.94;;;-1.69;81.85
75409;BME280;63979;55.644;37.734;2024-01-15T18:53:38;97927.59;;;-1.54;81.72
75409;BME280;63979;55.644;37.734;2024-01-15T18:58:39;97900.69;;;-1.39;81.03
75409;BME280;63979;55.644;37.734;2024-01-15T19:03:43;97907.13;;;-1.29;81.07
75409;BME280;63979;55.644;37.734;2024-01-15T19:08:43;97891.06;;;-1.38;80.25
75409;BME280;63979;55.644;37.734;2024-01-15T19:13:44;97899.19;;;-1.27;81.08
75409;BME280;63979;55.644;37.734;2024-01-15T19:18:45;97901.66;;;-1.41;81.33
75409;BME280;63979;55.644;37.734;2024-01-15T19:23:46;97891.25;;;-1.26;81.32
75409;BME280;63979;55.644;37.734;2024-01-15T19:28:48;97881.19;;;-1.33;81.83
75409;BME280;63979;55.644;37.734;2024-01-15T19:33:48;97892.88;;;-1.23;81.56
75409;BME280;63979;55.644;37.734;2024-01-15T19:38:52;97883.13;;;-1.37;81.93
75409;BME280;63979;55.644;37.734;2024-01-15T19:43:53;97875.13;;;-1.34;82.72
75409;BME280;63979;55.644;37.734;2024-01-15T19:48:55;97877.66;;;-1.32;82.27
75409;BME280;63979;55.644;37.734;2024-01-15T19:53:56;97868.41;;;-1.22;82.16
75409;BME280;63979;55.644;37.734;2024-01-15T19:58:56;97858.84;;;-1.23;81.62
75409;BME280;63979;55.644;37.734;2024-01-15T20:03:57;97836.97;;;-1.38;82.63
75409;BME280;63979;55.644;37.734;2024-01-15T20:08:58;97857.25;;;-1.10;81.99
75409;BME280;63979;55.644;37.734;2024-01-15T20:19:18;97859.13;;;-1.12;82.02
75409;BME280;63979;55.644;37.734;2024-01-15T20:24:20;97824.06;;;-1.25;82.48
75409;BME280;63979;55.644;37.734;2024-01-15T20:29:23;97881.31;;;-1.19;82.28
75409;BME280;63979;55.644;37.734;2024-01-15T20:34:24;97823.63;;;-1.33;82.41
75409;BME280;63979;55.644;37.734;2024-01-15T20:39:25;97858.94;;;-1.24;83.05
75409;BME280;63979;55.644;37.734;2024-01-15T20:44:26;97836.41;;;-1.44;83.07
75409;BME280;63979;55.644;37.734;2024-01-15T20:49:27;97857.25;;;-1.10;83.08
75409;BME280;63979;55.644;37.734;2024-01-15T20:54:28;97866.03;;;-1.11;82.64
75409;BME280;63979;55.644;37.734;2024-01-15T20:59:29;97872.34;;;-0.98;82.35
75409;BME280;63979;55.644;37.734;2024-01-15T21:04:30;97869.66;;;-1.13;83.15
75409;BME280;63979;55.644;37.734;2024-01-15T21:09:30;97856.22;;;-1.23;83.68
75409;BME280;63979;55.644;37.734;2024-01-15T21:14:31;97865.56;;;-1.02;83.42
75409;BME280;63979;55.644;37.734;2024-01-15T21:19:33;97864.94;;;-1.07;83.05
75409;BME280;63979;55.644;37.734;2024-01-15T21:24:34;97862.53;;;-0.94;83.34
75409;BME280;63979;55.644;37.734;2024-01-15T21:29:35;97866.16;;;-0.97;83.57
75409;BME280;63979;55.644;37.734;2024-01-15T21:34:37;97856.66;;;-1.15;83.79
75409;BME280;63979;55.644;37.734;2024-01-15T21:39:38;97848.00;;;-1.00;83.98
75409;BME280;63979;55.644;37.734;2024-01-15T21:44:39;97819.59;;;-1.23;83.95
75409;BME280;63979;55.644;37.734;2024-01-15T21:49:39;97864.34;;;-1.12;84.45
75409;BME280;63979;55.644;37.734;2024-01-15T21:54:40;97865.56;;;-1.02;83.87
75409;BME280;63979;55.644;37.734;2024-01-15T21:59:41;97858.69;;;-1.04;84.06
75409;BME280;63979;55.644;37.734;2024-01-15T22:04:42;97859.41;;;-1.01;83.80
75409;BME280;63979;55.644;37.734;2024-01-15T22:09:43;97863.38;;;-0.93;83.56
75409;BME280;63979;55.644;37.734;2024-01-15T22:14:44;97850.28;;;-0.93;82.86
75409;BME280;63979;55.644;37.734;2024-01-15T22:19:45;97821.63;;;-1.12;83.03
75409;BME280;63979;55.644;37.734;2024-01-15T22:24:47;97850.38;;;-0.95;83.03
75409;BME280;63979;55.644;37.734;2024-01-15T22:29:47;97848.78;;;-0.98;82.28
75409;BME280;63979;55.644;37.734;2024-01-15T22:34:51;97858.19;;;-1.11;82.56
75409;BME280;63979;55.644;37.734;2024-01-15T22:39:52;97856.13;;;-0.88;81.89
75409;BME280;63979;55.644;37.734;2024-01-15T22:44:52;97862.19;;;-1.04;82.21
75409;BME280;63979;55.644;37.734;2024-01-15T22:49:53;97849.16;;;-1.05;82.34
75409;BME280;63979;55.644;37.734;2024-01-15T22:54:54;97841.75;;;-0.97;82.12
75409;BME280;63979;55.644;37.734;2024-01-15T22:59:56;97860.50;;;-0.89;80.98
75409;BME280;63979;55.644;37.734;2024-01-15T23:04:57;97841.75;;;-0.81;80.59
75409;BME280;63979;55.644;37.734;2024-01-15T23:09:58;97851.22;;;-0.79;80.47
75409;BME280;63979;55.644;37.734;2024-01-15T23:14:59;97848.53;;;-0.77;79.63
75409;BME280;63979;55.644;37.734;2024-01-15T23:20:00;97850.03;;;-0.73;78.98
75409;BME280;63979;55.644;37.734;2024-01-15T23:25:02;97820.31;;;-0.88;78.90
75409;BME280;63979;55.644;37.734;2024-01-15T23:30:05;97843.88;;;-0.72;80.24
75409;BME280;63979;55.644;37.734;2024-01-15T23:35:06;97841.41;;;-0.75;79.60
75409;BME280;63979;55.644;37.734;2024-01-15T23:40:07;97854.50;;;-0.44;79.07
75409;BME280;63979;55.644;37.734;2024-01-15T23:45:09;97864.75;;;-0.55;78.03
75409;BME280;63979;55.644;37.734;2024-01-15T23:50:10;97852.56;;;-0.40;77.22
75409;BME280;63979;55.644;37.734;2024-01-15T23:55:11;97876.00;;;-0.53;76.73
